• Join FlightAware (Why Join?)
  • Login
  • US Flag 
12:12AM EST


 

Airport Tracker/Info


-or-


 

Live Flight TrackerFlight Track Log ✈ VH-HWU ✈ 06-Jul-2013 ✈ YSBK / BWU - YSBK / BWU

Flight Track Log - Related Links

Times and Time Zones

All times are in EDT time to prevent confusion due to time zone crossing. See the VH-HWU flight status page for this flight to view local times or setup timezone preferences in your user account.

Time Position Orientation Groundspeed Altitude Reporting Facility
EDT Latitude Longitude Course Direction KTS MPH feet Rate Location/Type
09:12PM -33.9146 150.9741 306° West 92 106 500  Level Aus ATC (RADAR)
09:13PM -33.9050 150.9579 306° West 96 110 1,200 1,020 Climbing Aus ATC (RADAR)
09:14PM -33.8926 150.9359 304° West 99 114 1,900 960 Climbing Aus ATC (RADAR)
09:14PM -33.8832 150.9177 302° West 101 116 2,500 600 Climbing Aus ATC (RADAR)
09:16PM -33.8459 150.8842 323° Northwest 136 157 3,100 240 Climbing Aus ATC (RADAR)
09:17PM -33.8143 150.8736 344° North 140 161 3,100 -120 Level Aus ATC (RADAR)
09:17PM -33.7843 150.8710 356° North 150 173 3,000 -60 Descending Aus ATC (RADAR)
09:18PM -33.7440 150.8758 North 143 165 3,000 -60 Level Aus ATC (RADAR)
09:19PM -33.7190 150.8799 North 138 159 2,900 -120 Descending Aus ATC (RADAR)
09:20PM -33.6956 150.8944 27° Northeast 134 154 2,900 60 Level Aus ATC (RADAR)
09:21PM -33.6987 150.9284 96° East 137 158 3,000 60 Climbing Aus ATC (RADAR)
09:21PM -33.7037 150.9654 99° East 134 154 3,000  Level Aus ATC (RADAR)
09:22PM -33.6946 150.9986 72° East 144 166 3,000 -120 Level Aus ATC (RADAR)
09:23PM -33.6764 150.9953 352° North 122 140 2,900 -120 Descending Aus ATC (RADAR)
09:23PM -33.6596 150.9804 324° Northwest 112 129 2,900 -240 Level Aus ATC (RADAR)
09:24PM -33.6468 150.9458 294° West 112 129 2,500 -480 Descending Aus ATC (RADAR)
09:25PM -33.6408 150.9202 286° West 101 116 2,100 -480 Descending Aus ATC (RADAR)
09:26PM -33.6329 150.8915 288° West 87 100 1,700 -480 Descending Aus ATC (RADAR)
09:27PM -33.6273 150.8699 287° West 88 101 1,300 -480 Descending Aus ATC (RADAR)
09:28PM -33.6234 150.8524 285° West 88 101 1,100 -480 Descending Aus ATC (RADAR)
09:28PM -33.6182 150.8350 289° West 91 105 800 -600 Descending Aus ATC (RADAR)
09:29PM -33.6143 150.8194 287° West 95 109 500 -600 Descending Aus ATC (RADAR)
09:29PM -33.6103 150.8027 286° West 88 101 200 360 Descending Aus ATC (RADAR)
09:30PM -33.5943 150.7802 310° West 97 112 1,100 960 Climbing Aus ATC (RADAR)
09:31PM -33.5911 150.8095 83° East 116 133 2,000 960 Climbing Aus ATC (RADAR)
09:32PM -33.5944 150.8324 100° East 120 138 2,500 780 Climbing Aus ATC (RADAR)
09:32PM -33.5993 150.8626 101° East 123 142 3,100 780 Climbing Aus ATC (RADAR)
09:33PM -33.6084 150.8796 122° Southeast 129 148 3,500 900 Climbing Aus ATC (RADAR)
09:33PM -33.6227 150.8727 202° Southwest 97 112 4,100 1,020 Climbing Aus ATC (RADAR)
09:34PM -33.6269 150.8558 253° West 85 98 4,700 720 Climbing Aus ATC (RADAR)
09:35PM -33.6317 150.8371 253° West 94 108 5,000 60 Climbing Aus ATC (RADAR)
09:36PM -33.6402 150.8066 251° West 101 116 4,800  Descending Aus ATC (RADAR)
09:37PM -33.6647 150.7858 215° Southwest 137 158 5,000 120 Climbing Aus ATC (RADAR)
09:37PM -33.6907 150.7783 194° South 127 146 5,100 -120 Climbing Aus ATC (RADAR)
09:38PM -33.7110 150.7737 191° South 127 146 4,900 -120 Descending Aus ATC (RADAR)
09:38PM -33.7310 150.7669 196° South 125 144 5,000 120 Climbing Aus ATC (RADAR)
09:39PM -33.7500 150.7587 200° South 123 142 5,100  Climbing Aus ATC (RADAR)
09:40PM -33.7715 150.7567 185° South 133 153 5,000 -120 Descending Aus ATC (RADAR)
09:41PM -33.8043 150.7480 192° South 129 148 5,000 -60 Level Aus ATC (RADAR)
09:42PM -33.8451 150.7374 192° South 141 162 4,900 -120 Descending Aus ATC (RADAR)
09:42PM -33.8708 150.7322 190° South 139 160 4,800  Descending Aus ATC (RADAR)
09:43PM -33.8916 150.7279 190° South 129 148 4,900 120 Climbing Aus ATC (RADAR)
09:43PM -33.9106 150.7259 185° South 117 135 5,000 60 Climbing Aus ATC (RADAR)
09:44PM -33.9273 150.7211 193° South 108 124 5,000  Level Aus ATC (RADAR)
09:45PM -33.9449 150.7158 194° South 113 130 5,000  Level Aus ATC (RADAR)
09:46PM -33.9851 150.7019 196° South 123 142 5,000  Level Aus ATC (RADAR)
09:47PM -34.0129 150.6977 187° South 122 140 5,000 -180 Level Aus ATC (RADAR)
09:47PM -34.0342 150.6939 188° South 118 136 4,800  Descending Aus ATC (RADAR)
09:48PM -34.0500 150.6836 209° Southwest 113 130 5,000 120 Climbing Aus ATC (RADAR)
09:48PM -34.0622 150.6674 228° Southwest 112 129 5,000  Level Aus ATC (RADAR)
09:49PM -34.0805 150.6669 181° South 135 155 5,000 -180 Level Aus ATC (RADAR)
09:50PM -34.0786 150.6951 85° East 145 167 4,800 -300 Descending Aus ATC (RADAR)
09:51PM -34.0500 150.6894 351° North 122 140 4,600 -300 Descending Aus ATC (RADAR)
09:52PM -34.0367 150.6665 305° West 113 130 4,300 -420 Descending Aus ATC (RADAR)
09:52PM -34.0578 150.6409 225° Southwest 126 145 3,900 -300 Descending Aus ATC (RADAR)
09:53PM -34.0764 150.6349 195° South 139 160 3,900  Level Aus ATC (RADAR)
09:54PM -34.0740 150.6698 85° East 146 168 3,900  Level Aus ATC (RADAR)
09:55PM -34.0453 150.6885 28° Northeast 126 145 3,900  Level Aus ATC (RADAR)
09:56PM -34.0165 150.6855 355° North 113 130 3,900 -240 Level Aus ATC (RADAR)
09:57PM -33.9812 150.6846 359° North 126 145 3,500 -360 Descending Aus ATC (RADAR)
09:57PM -33.9571 150.6823 355° North 127 146 3,300 -360 Descending Aus ATC (RADAR)
09:58PM -33.9447 150.6697 320° Northwest 112 129 3,100 -480 Descending Aus ATC (RADAR)
09:58PM -33.9632 150.6626 198° South 133 153 2,800 -660 Descending Aus ATC (RADAR)
09:59PM -33.9814 150.6668 169° South 136 157 2,400 -780 Descending Aus ATC (RADAR)
10:00PM -34.0015 150.6742 163° South 132 152 2,000 -540 Descending Aus ATC (RADAR)
10:00PM -34.0262 150.6862 158° South 116 133 1,700 -180 Descending Aus ATC (RADAR)
10:01PM -34.0401 150.6817 195° South 101 116 1,800 -300 Climbing Aus ATC (RADAR)
10:02PM -34.0282 150.6682 317° Northwest 106 122 1,400 -600 Descending Aus ATC (RADAR)
10:02PM -34.0174 150.6858 53° Northeast 128 147 1,200 -240 Descending Aus ATC (RADAR)
10:03PM -34.0108 150.7094 71° East 127 146 1,200 -360 Level Aus ATC (RADAR)
10:03PM -34.0240 150.7186 150° Southeast 93 107 800 -720 Descending Aus ATC (RADAR)
10:04PM -34.0309 150.7056 237° Southwest 77 89 400 300 Descending Aus ATC (RADAR)
10:05PM -34.0476 150.6673 242° Southwest 160 184 540 Descending Aus ATC (RADAR)
10:07PM -34.0264 150.6427 316° Northwest 114 131 2,000 1,440 Climbing Aus ATC (RADAR)
10:07PM -34.0094 150.6345 338° Northwest 110 127 2,600 900 Climbing Aus ATC (RADAR)
10:08PM -33.9953 150.6228 325° Northwest 105 121 3,100 900 Climbing Aus ATC (RADAR)
10:09PM -34.0090 150.5877 245° Southwest 103 119 4,100 1,020 Climbing Aus ATC (RADAR)
10:09PM -34.0175 150.5719 237° Southwest 99 114 4,800 960 Climbing Aus ATC (RADAR)
10:10PM -34.0214 150.5576 252° West 88 101 5,200 540 Climbing Aus ATC (RADAR)
10:11PM -34.0267 150.5382 252° West 104 120 5,400 60 Climbing Aus ATC (RADAR)
10:11PM -34.0232 150.5157 280° West 112 129 5,300 -120 Descending Aus ATC (RADAR)
10:12PM -34.0206 150.4937 278° West 111 128 5,300 -120 Level Aus ATC (RADAR)
10:12PM -34.0203 150.4667 271° West 104 120 5,200  Descending Aus ATC (RADAR)
10:13PM -34.0351 150.4333 242° Southwest 111 128 5,300  Climbing Aus ATC (RADAR)
10:14PM -34.0581 150.4268 193° South 115 132 5,300 -120 Level Aus ATC (RADAR)
10:15PM -34.0752 150.4356 157° South 114 131 5,200 -360 Descending Aus ATC (RADAR)
10:16PM -34.1046 150.4655 140° Southeast 119 137 4,700 -540 Descending Aus ATC (RADAR)
10:16PM -34.1153 150.4806 131° Southeast 119 137 4,300 -720 Descending Aus ATC (RADAR)
10:17PM -34.1330 150.5160 121° Southeast 122 140 3,700 -660 Descending Aus ATC (RADAR)
10:18PM -34.1220 150.5418 63° Northeast 118 136 3,200 -540 Descending Aus ATC (RADAR)
10:19PM -34.1088 150.5549 40° Northeast 106 122 3,000 -600 Descending Aus ATC (RADAR)
10:19PM -34.0945 150.5695 40° Northeast 111 128 2,500 -900 Descending Aus ATC (RADAR)
10:21PM -34.0896 150.5820 65° Northeast  Level FlightAware Approximate
10:28PM -34.0576 150.6641 65° Northeast  Level FlightAware Approximate
10:29PM -34.0531 150.6758 65° Northeast  Level FlightAware Approximate
10:30PM -34.0485 150.6875 65° Northeast  Level FlightAware Approximate
10:31PM -34.0439 150.6992 65° Northeast  Level FlightAware Approximate
10:32PM -34.0393 150.7109 65° Northeast  Level FlightAware Approximate
10:33PM -34.0347 150.7227 65° Northeast  Level FlightAware Approximate
10:34PM -34.0302 150.7344 65° Northeast  Level FlightAware Approximate
10:35PM -34.0256 150.7461 65° Northeast  Level FlightAware Approximate
10:36PM -34.0210 150.7578 65° Northeast  Level FlightAware Approximate
10:37PM -34.0164 150.7695 65° Northeast  Level FlightAware Approximate
10:38PM -34.0118 150.7812 65° Northeast  Level FlightAware Approximate
10:39PM -34.0072 150.7929 65° Northeast  Level FlightAware Approximate
10:40PM -34.0026 150.8046 65° Northeast  Level FlightAware Approximate
10:41PM -33.9980 150.8163 65° Northeast  Level FlightAware Approximate
10:42PM -33.9934 150.8280 65° Northeast  Level FlightAware Approximate
10:43PM -33.9888 150.8397 65° Northeast  Level FlightAware Approximate
10:44PM -33.9843 150.8514 65° Northeast  Level FlightAware Approximate
10:45PM -33.9797 150.8631 65° Northeast  Level FlightAware Approximate
10:46PM -33.9746 150.8746 North  Level Estimated
10:47PM -33.9696 150.8860 North  Level Estimated
10:48PM -33.9646 150.8974 North  Level Estimated
10:49PM -33.9595 150.9089 North  Level Estimated
10:50PM -33.9545 150.9203 North  Level Estimated
10:51PM -33.9494 150.9317 North  Level Estimated
10:52PM -33.9444 150.9431 North  Level Estimated
10:53PM -33.9394 150.9546 North  Level Estimated
10:54PM -33.9343 150.9660 North  Level Estimated
10:55PM -33.9293 150.9774 North  Level Estimated
10:56PM -33.9244 150.9884 North  Level FlightAware Approximate
10:57PM -33.9244 150.9883 North  Level Estimated
10:58PM -33.9244 150.9883 North  Level Estimated
10:59PM -33.9244 150.9883 North  Level Estimated
11:00PM -33.9244 150.9883 North  Level Estimated
11:01PM -33.9244 150.9883 North  Level Estimated
11:02PM -33.9244 150.9883 North  Level Estimated
11:03PM -33.9244 150.9883 North  Level Estimated
11:04PM -33.9244 150.9883 North  Level Estimated
11:05PM -33.9244 150.9883 North  Level Estimated
11:06PM -33.9244 150.9883 North  Level Estimated
11:07PM -33.9244 150.9883 North  Level Estimated
11:08PM -33.9244 150.9883 North  Level Estimated
11:09PM -33.9244 150.9883 North  Level Estimated